Time;durP1;ratioP1;P1;durP2;ratioP2;P2;SDS_P1;SDS_P2;PMS_P1;PMS_P2;Temp;Humidity;BMP_temperature;BMP_pressure;BME280_temperature;BME280_humidity;BME280_pressure;Samples;Min_cycle;Max_cycle;Signal;HPM_P1;HPM_P2
2022/01/02 00:00:41;;;;;;;54.20;24.85;;;;;;;8.90;100.00;100001.53;8342651;28;20053;-70
2022/01/02 00:04:48;;;;;;;58.92;25.63;;;;;;;8.93;100.00;99988.59;8281108;28;20061;-71
2022/01/02 00:08:55;;;;;;;68.97;27.88;;;;;;;8.95;100.00;99981.84;8296760;28;20144;-70
2022/01/02 00:13:00;;;;;;;68.07;27.63;;;;;;;8.96;100.00;99982.66;8282810;28;20503;-70
2022/01/02 00:17:03;;;;;;;63.28;27.60;;;;;;;8.98;100.00;99975.13;8292128;28;20464;-71
2022/01/02 00:21:10;;;;;;;61.88;26.75;;;;;;;8.98;100.00;99969.72;8243377;28;20529;-70
2022/01/02 00:25:22;;;;;;;65.25;28.80;;;;;;;8.95;100.00;99976.47;8291651;28;20042;-71
2022/01/02 00:29:24;;;;;;;71.72;30.15;;;;;;;8.90;100.00;99961.13;8275265;28;20139;-71
2022/01/02 00:33:25;;;;;;;82.20;34.30;;;;;;;8.78;100.00;99949.84;8300415;28;20076;-70
2022/01/02 00:37:26;;;;;;;83.47;33.75;;;;;;;8.72;100.00;99940.22;8387460;28;20558;-70
2022/01/02 00:41:43;;;;;;;85.07;36.95;;;;;;;8.62;100.00;99918.69;8385946;28;20045;-71
2022/01/02 00:45:49;;;;;;;75.88;33.95;;;;;;;8.45;100.00;99912.84;8385364;28;20041;-71
2022/01/02 00:50:11;;;;;;;78.28;32.53;;;;;;;8.40;100.00;99904.81;8363422;28;20063;-70
2022/01/02 00:54:15;;;;;;;79.88;33.75;;;;;;;8.30;100.00;99910.22;8387036;28;20056;-71
2022/01/02 00:58:17;;;;;;;75.13;34.10;;;;;;;8.27;100.00;99910.72;8368815;28;20137;-71
2022/01/02 01:02:42;;;;;;;78.30;34.53;;;;;;;8.22;100.00;99916.13;8363869;28;20045;-70
2022/01/02 01:06:47;;;;;;;85.88;35.60;;;;;;;8.28;100.00;99933.88;8368520;28;20399;-70
2022/01/02 01:10:48;;;;;;;73.10;31.90;;;;;;;8.32;100.00;99934.97;8377912;28;20048;-71
2022/01/02 01:14:51;;;;;;;74.57;32.35;;;;;;;8.35;100.00;99937.91;8380405;28;20048;-70
2022/01/02 01:18:52;;;;;;;69.95;31.73;;;;;;;8.40;100.00;99943.28;8365706;28;20044;-70
2022/01/02 01:22:52;;;;;;;70.50;30.98;;;;;;;8.39;100.00;99924.72;8379025;28;21059;-70
2022/01/02 01:26:56;;;;;;;69.72;30.30;;;;;;;8.39;100.00;99922.03;8381686;28;20466;-71
2022/01/02 01:30:57;;;;;;;74.65;31.02;;;;;;;8.40;100.00;99910.19;8357095;28;20487;-70
2022/01/02 01:34:58;;;;;;;63.83;31.27;;;;;;;8.36;100.00;99899.16;8366660;28;20502;-70
2022/01/02 01:38:58;;;;;;;66.03;29.88;;;;;;;8.29;100.00;99887.03;8386762;28;20087;-70
2022/01/02 01:43:02;;;;;;;68.75;30.90;;;;;;;8.29;100.00;99892.44;8376811;28;20128;-70
2022/01/02 01:47:03;;;;;;;68.03;28.30;;;;;;;8.28;100.00;99885.44;8390122;28;20435;-71
2022/01/02 01:51:04;;;;;;;65.57;28.08;;;;;;;8.25;100.00;99883.31;8384363;28;20043;-70
2022/01/02 01:55:06;;;;;;;66.15;29.15;;;;;;;8.14;100.00;99879.03;8392838;28;20096;-70
2022/01/02 01:59:07;;;;;;;77.93;31.20;;;;;;;8.09;100.00;99876.34;8392286;28;20053;-70
2022/01/02 02:03:07;;;;;;;60.55;27.73;;;;;;;8.01;100.00;99870.44;8384475;28;20123;-70
2022/01/02 02:07:09;;;;;;;63.20;28.70;;;;;;;7.85;100.00;99866.19;8392412;28;20064;-70
2022/01/02 02:11:10;;;;;;;61.53;29.70;;;;;;;7.78;100.00;99862.94;8383887;28;20052;-70
2022/01/02 02:15:12;;;;;;;74.38;31.60;;;;;;;7.76;100.00;99867.81;8315662;28;20040;-70
2022/01/02 02:19:13;;;;;;;67.80;28.23;;;;;;;7.67;100.00;99861.34;8366796;28;20065;-70
2022/01/02 02:23:15;;;;;;;70.50;24.90;;;;;;;7.60;100.00;99847.41;8362259;28;20123;-70
2022/01/02 02:27:21;;;;;;;64.95;24.75;;;;;;;7.55;100.00;99833.97;8373866;28;20053;-71
2022/01/02 02:31:22;;;;;;;60.63;27.10;;;;;;;7.50;100.00;99820.53;8384151;28;20488;-70
2022/01/02 02:35:24;;;;;;;57.05;25.48;;;;;;;7.38;100.00;99811.94;8386358;28;20049;-70
2022/01/02 02:39:26;;;;;;;71.50;25.42;;;;;;;7.30;100.00;99799.03;8384527;28;20046;-70
2022/01/02 02:43:36;;;;;;;104.22;23.38;;;;;;;7.24;100.00;99800.94;8392670;28;20484;-70
2022/01/02 02:52:03;;;;;;;58.72;21.48;;;;;;;7.01;100.00;99802.28;8381220;28;20416;-70
2022/01/02 02:56:13;;;;;;;58.50;21.80;;;;;;;6.95;100.00;99797.97;8354529;28;20052;-69
2022/01/02 03:00:14;;;;;;;53.20;22.33;;;;;;;6.94;100.00;99800.94;8383251;28;20136;-71
2022/01/02 03:04:15;;;;;;;49.50;21.92;;;;;;;6.95;100.00;99784.56;8389317;28;20483;-70
2022/01/02 03:08:15;;;;;;;49.92;23.65;;;;;;;6.92;100.00;99766.31;8338557;28;20162;-70
2022/01/02 03:12:18;;;;;;;63.92;25.42;;;;;;;6.89;100.00;99748.03;8377367;28;20496;-70
2022/01/02 03:16:19;;;;;;;54.10;24.70;;;;;;;6.85;100.00;99744.28;8381925;28;20094;-70
2022/01/02 03:20:20;;;;;;;59.88;24.33;;;;;;;6.83;100.00;99746.41;8396173;28;20048;-69
2022/01/02 03:24:20;;;;;;;52.78;23.35;;;;;;;6.79;100.00;99739.97;8395044;28;20052;-70
2022/01/02 03:28:22;;;;;;;52.20;22.73;;;;;;;6.80;100.00;99736.22;8388061;28;20060;-70
2022/01/02 03:32:22;;;;;;;47.83;20.83;;;;;;;6.72;100.00;99734.06;8335780;28;20101;-70
2022/01/02 03:36:23;;;;;;;48.92;21.10;;;;;;;6.63;100.00;99714.22;8395765;28;20504;-71
2022/01/02 03:40:24;;;;;;;44.85;21.23;;;;;;;6.58;100.00;99700.78;8387755;28;20591;-71
2022/01/02 03:44:25;;;;;;;46.80;19.45;;;;;;;6.60;100.00;99693.28;8395728;28;20052;-70
2022/01/02 03:48:25;;;;;;;41.45;19.05;;;;;;;6.57;100.00;99688.44;8395435;28;20052;-71
2022/01/02 03:52:26;;;;;;;49.05;20.30;;;;;;;6.54;100.00;99675.56;8377485;28;20060;-71
2022/01/02 03:56:27;;;;;;;47.85;18.73;;;;;;;6.53;100.00;99660.53;8395514;28;20068;-71
2022/01/02 04:00:28;;;;;;;47.33;20.70;;;;;;;6.53;100.00;99660.53;8394879;28;20052;-71
2022/01/02 04:04:28;;;;;;;50.38;21.77;;;;;;;6.52;100.00;99658.91;8379705;28;20488;-70
2022/01/02 04:08:29;;;;;;;50.55;21.38;;;;;;;6.50;100.00;99655.72;8389815;28;20052;-71
2022/01/02 04:12:30;;;;;;;56.95;23.65;;;;;;;6.48;100.00;99636.41;8395140;28;20583;-71
2022/01/02 04:16:31;;;;;;;54.65;23.95;;;;;;;6.44;100.00;99624.59;8379096;28;20053;-71
2022/01/02 04:20:32;;;;;;;53.25;23.77;;;;;;;6.39;100.00;99600.44;8386457;28;20044;-70
2022/01/02 04:24:32;;;;;;;53.95;23.40;;;;;;;6.35;100.00;99600.97;8333264;28;20040;-71
2022/01/02 04:28:34;;;;;;;51.45;22.05;;;;;;;6.31;100.00;99578.44;8385551;28;20412;-69
2022/01/02 04:32:35;;;;;;;55.10;23.05;;;;;;;6.26;100.00;99565.03;8376431;28;20056;-69
2022/01/02 04:36:35;;;;;;;54.67;22.55;;;;;;;6.25;100.00;99574.16;8378639;28;20128;-70
2022/01/02 04:40:36;;;;;;;56.90;22.48;;;;;;;6.20;100.00;99568.78;8377562;28;20048;-70
2022/01/02 04:44:37;;;;;;;45.10;20.77;;;;;;;6.16;100.00;99559.69;8384880;28;20044;-71
2022/01/02 04:48:38;;;;;;;55.17;20.73;;;;;;;6.15;100.00;99541.97;8377345;28;20051;-70
2022/01/02 04:52:39;;;;;;;39.95;18.92;;;;;;;6.08;100.00;99546.78;8385787;28;20119;-70
2022/01/02 04:56:40;;;;;;;38.60;18.80;;;;;;;6.08;100.00;99552.16;8384974;28;20040;-70
2022/01/02 05:00:40;;;;;;;43.67;18.90;;;;;;;6.07;100.00;99576.59;8340683;28;20526;-70
2022/01/02 05:04:41;;;;;;;38.45;17.08;;;;;;;6.11;100.00;99589.19;8384825;28;20044;-70
2022/01/02 05:08:45;;;;;;;43.63;18.42;;;;;;;6.15;100.00;99584.88;8386106;28;20457;-70
2022/01/02 05:12:46;;;;;;;47.17;19.50;;;;;;;6.09;100.00;99559.13;8392821;28;20051;-70
2022/01/02 05:16:47;;;;;;;44.95;17.85;;;;;;;6.03;100.00;99544.13;8392853;28;20052;-70
2022/01/02 05:20:48;;;;;;;44.22;18.63;;;;;;;6.05;100.00;99552.72;8374385;28;20040;-71
2022/01/02 05:24:48;;;;;;;42.58;18.33;;;;;;;6.08;100.00;99546.78;8357144;28;20156;-70
2022/01/02 05:28:49;;;;;;;42.72;18.83;;;;;;;6.07;100.00;99523.75;8384970;28;20049;-70
2022/01/02 05:32:51;;;;;;;37.75;16.67;;;;;;;6.03;100.00;99514.63;8392492;28;20101;-70
2022/01/02 05:36:52;;;;;;;43.10;17.70;;;;;;;6.02;100.00;99502.31;8392892;28;20458;-70
2022/01/02 05:40:55;;;;;;;40.70;17.50;;;;;;;6.03;100.00;99490.50;8384300;28;20500;-70
2022/01/02 05:44:56;;;;;;;40.42;17.48;;;;;;;6.04;100.00;99492.09;8392911;28;20048;-71
2022/01/02 05:48:56;;;;;;;43.47;17.10;;;;;;;6.03;100.00;99474.41;8376662;28;20083;-70
2022/01/02 05:52:57;;;;;;;42.90;18.42;;;;;;;6.03;100.00;99474.41;8391882;28;20379;-70
2022/01/02 05:56:58;;;;;;;38.10;17.30;;;;;;;6.06;100.00;99476.56;8392775;28;20052;-70
2022/01/02 06:00:59;;;;;;;37.13;17.25;;;;;;;6.12;100.00;99472.81;8392616;28;20044;-70
2022/01/02 06:05:02;;;;;;;39.88;18.55;;;;;;;6.12;100.00;99462.09;8384604;28;20112;-70
2022/01/02 06:09:03;;;;;;;33.00;17.40;;;;;;;6.13;100.00;99436.88;8380875;28;20052;-70
2022/01/02 06:13:04;;;;;;;42.15;19.00;;;;;;;6.09;100.00;99425.06;8358290;28;20143;-70
2022/01/02 06:17:04;;;;;;;44.35;19.27;;;;;;;6.07;100.00;99427.22;8385490;28;20037;-71
2022/01/02 06:21:05;;;;;;;44.42;18.95;;;;;;;6.09;100.00;99425.06;8397997;28;20041;-69
2022/01/02 06:25:06;;;;;;;43.10;20.75;;;;;;;6.08;100.00;99423.44;8311320;28;20049;-70
2022/01/02 06:29:07;;;;;;;44.42;20.20;;;;;;;6.11;100.00;99433.66;8319735;28;20064;-70
2022/01/02 06:33:09;;;;;;;40.75;18.88;;;;;;;6.11;100.00;99417.56;8327358;28;20053;-71
2022/01/02 06:37:09;;;;;;;39.40;18.08;;;;;;;6.10;100.00;99426.69;8327896;28;20087;-71
2022/01/02 06:41:12;;;;;;;44.75;19.02;;;;;;;6.10;100.00;99432.03;8327581;28;20041;-71
2022/01/02 06:45:13;;;;;;;39.30;19.25;;;;;;;6.17;100.00;99421.84;8327520;28;20045;-71
2022/01/02 06:49:14;;;;;;;42.67;20.08;;;;;;;6.07;100.00;99405.78;8327386;28;20068;-70
2022/01/02 06:53:15;;;;;;;44.97;20.08;;;;;;;6.07;100.00;99400.44;8310378;28;20537;-71
2022/01/02 06:57:16;;;;;;;36.55;17.75;;;;;;;6.11;100.00;99412.22;8344263;28;20055;-70
2022/01/02 07:01:16;;;;;;;35.35;17.15;;;;;;;6.17;100.00;99410.31;8397064;28;20045;-70
2022/01/02 07:05:18;;;;;;;38.13;17.10;;;;;;;6.12;100.00;99408.44;8390362;28;20167;-70
2022/01/02 07:09:18;;;;;;;33.42;15.93;;;;;;;6.09;100.00;99425.06;8380818;28;20068;-69
2022/01/02 07:13:19;;;;;;;41.53;15.88;;;;;;;6.13;100.00;99410.06;8382147;28;20127;-71
2022/01/02 07:17:20;;;;;;;36.22;15.10;;;;;;;6.09;100.00;99403.63;8375934;28;20131;-70
2022/01/02 07:21:21;;;;;;;30.80;14.77;;;;;;;6.10;100.00;99391.81;8347282;28;20046;-70
2022/01/02 07:25:21;;;;;;;31.63;15.18;;;;;;;6.09;100.00;99387.53;8377939;28;20135;-70
2022/01/02 07:29:22;;;;;;;29.58;14.50;;;;;;;6.12;100.00;99387.00;8373380;28;20075;-71
2022/01/02 07:33:23;;;;;;;28.27;13.85;;;;;;;6.14;100.00;99384.84;8378327;28;20493;-70
2022/01/02 07:37:24;;;;;;;33.05;13.48;;;;;;;6.18;100.00;99364.47;8368703;28;20516;-71
2022/01/02 07:41:25;;;;;;;27.85;13.80;;;;;;;6.27;100.00;99362.81;8367539;28;20051;-70
2022/01/02 07:45:26;;;;;;;25.98;12.65;;;;;;;6.30;100.00;99364.94;8372351;28;20041;-69
2022/01/02 07:49:27;;;;;;;25.90;12.50;;;;;;;6.39;100.00;99353.66;8372160;28;20614;-70
2022/01/02 07:53:28;;;;;;;23.83;12.02;;;;;;;6.51;100.00;99356.78;8361073;28;20049;-70
2022/01/02 07:57:29;;;;;;;24.02;11.52;;;;;;;6.57;100.00;99361.06;8375292;28;20045;-71
2022/01/02 08:01:30;;;;;;;24.67;12.20;;;;;;;6.71;100.00;99370.13;8379353;28;20423;-71
2022/01/02 08:05:31;;;;;;;22.17;11.48;;;;;;;6.75;100.00;99368.50;8380705;28;20056;-71
2022/01/02 08:09:32;;;;;;;24.90;11.82;;;;;;;6.85;100.00;99373.81;8375388;28;20055;-71
2022/01/02 08:13:32;;;;;;;22.25;10.23;;;;;;;7.02;100.00;99352.75;8383004;28;20123;-72
2022/01/02 08:17:33;;;;;;;20.90;9.90;;;;;;;7.11;100.00;99356.44;8378588;28;20135;-71
2022/01/02 08:21:34;;;;;;;22.67;9.82;;;;;;;7.21;100.00;99356.38;8327490;28;20041;-71
2022/01/02 08:25:35;;;;;;;22.70;9.70;;;;;;;7.27;100.00;99348.28;8368544;28;20094;-71
2022/01/02 08:29:36;;;;;;;19.70;7.97;;;;;;;7.38;100.00;99344.41;8389258;28;20041;-70
2022/01/02 08:33:37;;;;;;;19.23;7.88;;;;;;;7.43;99.63;99347.06;8383623;28;20037;-70
2022/01/02 08:37:39;;;;;;;16.88;8.10;;;;;;;7.45;98.84;99339.53;8389889;28;20048;-71
2022/01/02 08:41:40;;;;;;;19.38;7.47;;;;;;;7.49;98.69;99340.56;8339506;28;20484;-71
2022/01/02 08:45:40;;;;;;;15.80;5.90;;;;;;;7.51;99.05;99335.69;8388028;28;20183;-69
2022/01/02 08:49:42;;;;;;;15.18;6.38;;;;;;;7.64;98.26;99343.09;8394788;28;20049;-71
2022/01/02 08:53:42;;;;;;;12.75;5.80;;;;;;;7.77;96.93;99320.94;8394255;28;20086;-70
2022/01/02 08:57:43;;;;;;;11.23;5.57;;;;;;;7.91;95.92;99338.00;8391172;28;20707;-70
2022/01/02 09:01:44;;;;;;;11.63;5.68;;;;;;;8.10;93.82;99324.59;8378798;28;20099;-70
2022/01/02 09:05:45;;;;;;;12.95;5.45;;;;;;;8.09;95.10;99306.84;8352939;28;20052;-70
2022/01/02 09:09:46;;;;;;;14.45;5.97;;;;;;;8.14;94.35;99308.69;8369247;28;20068;-71
2022/01/02 09:13:47;;;;;;;15.63;6.82;;;;;;;8.08;94.46;99294.50;8341256;28;20045;-73
2022/01/02 09:17:47;;;;;;;16.75;5.95;;;;;;;8.06;94.20;99292.09;8377398;28;20489;-74
2022/01/02 09:21:48;;;;;;;15.93;6.47;;;;;;;8.07;94.09;99299.09;8367977;28;20664;-73
2022/01/02 09:25:49;;;;;;;21.75;8.40;;;;;;;8.04;94.50;99288.88;8325411;28;20075;-71
2022/01/02 09:29:50;;;;;;;20.63;8.35;;;;;;;8.03;94.65;99290.00;8383557;28;20059;-71
2022/01/02 09:33:51;;;;;;;18.42;8.40;;;;;;;8.03;93.96;99287.31;8352434;28;20506;-71
2022/01/02 09:37:52;;;;;;;21.25;8.88;;;;;;;8.07;94.46;99282.94;8384873;28;20480;-70
2022/01/02 09:41:53;;;;;;;20.05;9.52;;;;;;;8.15;94.08;99278.00;8383732;28;20068;-70
2022/01/02 09:45:54;;;;;;;25.20;9.73;;;;;;;8.16;94.02;99295.75;8386444;28;20479;-70
2022/01/02 09:49:56;;;;;;;22.25;8.95;;;;;;;8.20;93.93;99280.63;8398834;28;20095;-70
2022/01/02 09:53:57;;;;;;;17.15;8.65;;;;;;;8.44;93.38;99287.63;8390007;28;20041;-70
2022/01/02 09:57:59;;;;;;;14.05;6.32;;;;;;;8.73;91.13;99295.53;8390277;28;20064;-71
2022/01/02 10:02:01;;;;;;;16.13;6.15;;;;;;;8.83;90.41;99290.00;8389008;28;20055;-72
2022/01/02 10:06:02;;;;;;;12.23;5.78;;;;;;;8.99;88.31;99281.69;8387323;28;20067;-71
2022/01/02 10:10:10;;;;;;;12.88;5.20;;;;;;;9.04;87.38;99273.53;8391612;28;21730;-71
2022/01/02 10:14:11;;;;;;;12.03;4.90;;;;;;;9.23;85.84;99276.97;8384930;28;20053;-70
2022/01/02 10:18:13;;;;;;;12.13;5.47;;;;;;;9.33;85.37;99274.09;8385237;28;20090;-71
2022/01/02 10:22:14;;;;;;;11.85;5.25;;;;;;;9.45;84.22;99255.56;8396614;28;20086;-71
2022/01/02 10:26:15;;;;;;;11.38;4.75;;;;;;;9.45;85.12;99252.88;8392384;28;20072;-70
2022/01/02 10:30:19;;;;;;;10.15;4.88;;;;;;;9.49;84.78;99237.69;8390517;28;20071;-71
2022/01/02 10:34:30;;;;;;;11.30;5.35;;;;;;;9.43;85.11;99238.88;8392575;28;20090;-70
2022/01/02 10:38:31;;;;;;;14.68;5.50;;;;;;;9.46;85.42;99241.00;8351811;28;20074;-70
2022/01/02 10:42:41;;;;;;;13.30;5.82;;;;;;;9.47;85.67;99239.88;8345554;28;20128;-70
2022/01/02 10:47:21;;;;;;;12.30;5.60;;;;;;;9.47;85.91;99229.09;8306433;28;20133;-72
2022/01/02 10:51:24;;;;;;;11.13;5.70;;;;;;;9.40;85.85;99228.72;8258402;28;20081;-72
2022/01/02 10:55:27;;;;;;;10.63;5.28;;;;;;;9.51;85.39;99213.16;8262500;28;20075;-71
2022/01/02 10:59:29;;;;;;;14.15;5.88;;;;;;;9.52;85.19;99215.53;8262310;28;20065;-69
2022/01/02 11:03:30;;;;;;;11.38;5.00;;;;;;;9.48;85.26;99209.13;8263485;28;20367;-71
2022/01/02 11:07:39;;;;;;;16.95;6.00;;;;;;;9.54;85.29;99202.56;8263776;28;20046;-71
2022/01/02 11:11:39;;;;;;;9.77;4.97;;;;;;;9.51;86.18;99192.38;8263759;28;20064;-71
2022/01/02 11:15:40;;;;;;;15.50;5.40;;;;;;;9.59;85.69;99178.19;8247312;28;20058;-71
2022/01/02 11:19:41;;;;;;;16.70;5.88;;;;;;;9.52;86.39;99171.59;8263247;28;20137;-71
2022/01/02 11:23:45;;;;;;;13.15;6.07;;;;;;;9.50;86.95;99168.41;8247092;28;20085;-71
2022/01/02 11:27:58;;;;;;;14.10;5.93;;;;;;;9.52;87.18;99172.38;8336513;28;20467;-70
2022/01/02 11:32:00;;;;;;;17.13;7.05;;;;;;;9.52;87.62;99169.69;8294953;28;20081;-71
2022/01/02 11:36:20;;;;;;;18.50;6.85;;;;;;;9.49;87.90;99178.38;8295228;28;20058;-71
2022/01/02 11:40:45;;;;;;;15.23;7.13;;;;;;;9.40;88.96;99164.03;8295013;28;20054;-71
2022/01/02 11:44:49;;;;;;;19.38;9.68;;;;;;;9.39;88.98;99164.31;8294708;28;20568;-71
2022/01/02 11:49:05;;;;;;;23.98;10.57;;;;;;;9.39;88.77;99161.63;8295060;28;20073;-71
2022/01/02 11:53:11;;;;;;;22.42;8.93;;;;;;;9.32;88.66;99162.00;8294479;28;20513;-71
2022/01/02 11:57:15;;;;;;;17.17;7.57;;;;;;;9.40;88.07;99158.63;8294439;28;20048;-72
2022/01/02 12:01:49;;;;;;;19.27;8.00;;;;;;;9.47;88.01;99147.44;8319429;28;20503;-71
2022/01/02 12:06:24;;;;;;;16.20;7.30;;;;;;;9.48;88.07;99139.06;8384359;28;20555;-71
2022/01/02 12:10:31;;;;;;;20.77;8.73;;;;;;;9.45;88.37;99128.88;8388241;28;20049;-71
2022/01/02 12:14:51;;;;;;;21.75;8.82;;;;;;;9.43;88.92;99131.06;8379148;28;20400;-72
2022/01/02 12:18:55;;;;;;;;;;;;;;;9.39;89.21;99113.91;8380979;28;20473;-72
2022/01/02 12:22:56;;;;;;;11.73;6.28;;;;;;;9.37;89.36;99128.75;8389914;28;19920;-71
2022/01/02 12:27:07;;;;;;;20.65;7.97;;;;;;;9.39;89.10;99130.06;8396180;28;20049;-71
2022/01/02 12:31:09;;;;;;;16.45;8.13;;;;;;;9.39;89.69;99119.28;8396280;28;20773;-72
2022/01/02 12:35:10;;;;;;;30.80;14.52;;;;;;;9.32;90.69;99118.88;8387739;28;20060;-71
2022/01/02 12:39:13;;;;;;;32.10;12.45;;;;;;;9.30;91.20;99115.72;8387671;28;20072;-72
2022/01/02 12:43:14;;;;;;;31.35;15.38;;;;;;;9.29;91.42;99106.03;8395803;28;20052;-71
2022/01/02 12:47:16;;;;;;;43.25;16.70;;;;;;;9.27;91.59;99094.72;8387232;28;20049;-71
2022/01/02 12:51:16;;;;;;;34.35;13.27;;;;;;;9.27;91.90;99095.53;8387240;28;20060;-71
2022/01/02 12:55:17;;;;;;;30.42;14.45;;;;;;;9.33;92.06;99098.94;8386947;28;20531;-72
2022/01/02 12:59:22;;;;;;;31.08;12.85;;;;;;;9.39;91.83;99081.56;8387175;28;20071;-71
2022/01/02 13:03:23;;;;;;;27.73;11.93;;;;;;;9.41;91.45;99073.94;8390968;28;20450;-71
2022/01/02 13:07:26;;;;;;;30.35;11.95;;;;;;;9.48;90.75;99074.34;8385193;28;20106;-71
2022/01/02 13:11:36;;;;;;;28.08;10.30;;;;;;;9.56;89.82;99065.56;8364640;28;20045;-72
2022/01/02 13:15:37;;;;;;;24.58;10.70;;;;;;;9.59;89.42;99070.34;8376508;28;20060;-72
2022/01/02 13:19:47;;;;;;;27.55;11.18;;;;;;;9.58;89.61;99052.56;8367373;28;20045;-72
2022/01/02 13:23:48;;;;;;;25.45;10.60;;;;;;;9.55;89.41;99050.50;8390110;28;20482;-72
2022/01/02 13:28:10;;;;;;;21.50;9.98;;;;;;;9.53;89.16;99039.19;8355029;28;20153;-72
2022/01/02 13:32:15;;;;;;;20.60;10.05;;;;;;;9.51;89.47;99030.63;8355770;28;20049;-72
2022/01/02 13:36:16;;;;;;;19.15;8.93;;;;;;;9.53;89.00;99023.03;8326962;28;20419;-72
2022/01/02 13:40:19;;;;;;;22.67;8.77;;;;;;;9.57;88.45;99010.53;8378571;28;20566;-73
2022/01/02 13:44:24;;;;;;;17.13;8.05;;;;;;;9.60;88.17;99007.25;8370177;28;20466;-72
2022/01/02 13:48:29;;;;;;;16.42;6.95;;;;;;;9.54;88.37;99000.34;8378044;28;20040;-72
2022/01/02 13:52:31;;;;;;;18.83;6.88;;;;;;;9.54;88.13;98992.28;8381206;28;20055;-72
2022/01/02 13:56:31;;;;;;;21.65;7.78;;;;;;;9.56;87.99;98984.69;8365614;28;20389;-74
2022/01/02 14:00:32;;;;;;;19.13;7.50;;;;;;;9.60;87.22;98985.66;8359091;28;20069;-73
2022/01/02 14:04:56;;;;;;;21.90;8.38;;;;;;;9.59;87.46;98984.06;8373498;28;20075;-73
2022/01/02 14:09:04;;;;;;;21.00;8.13;;;;;;;9.57;87.54;98991.66;8379956;28;20079;-72
2022/01/02 14:13:11;;;;;;;20.40;8.63;;;;;;;9.51;87.61;98987.50;8357542;28;20056;-71
2022/01/02 14:21:13;;;;;;;22.77;8.70;;;;;;;9.48;87.68;98949.56;8380504;28;20064;-72
2022/01/02 14:25:15;;;;;;;21.73;8.73;;;;;;;9.47;87.82;98948.75;8357632;28;20143;-72
2022/01/02 14:29:17;;;;;;;23.25;9.75;;;;;;;9.50;87.45;98942.78;8384494;28;20053;-71
2022/01/02 14:33:18;;;;;;;19.38;8.75;;;;;;;9.46;87.41;98925.63;8373674;28;20076;-71
2022/01/02 14:37:20;;;;;;;28.35;11.20;;;;;;;9.47;87.61;98916.41;8377697;28;20094;-72
2022/01/02 14:41:21;;;;;;;34.08;13.80;;;;;;;9.43;88.05;98915.44;8365641;28;20048;-72
2022/01/02 14:45:23;;;;;;;36.00;16.40;;;;;;;9.35;88.49;98924.25;8331332;28;20572;-72
2022/01/02 14:49:24;;;;;;;43.17;18.98;;;;;;;9.25;88.82;98914.47;8390996;28;20163;-72
2022/01/02 14:53:27;;;;;;;38.75;17.02;;;;;;;9.18;89.69;98921.41;8387824;28;20060;-72
2022/01/02 14:57:29;;;;;;;42.17;19.50;;;;;;;9.10;90.46;98879.00;8379343;28;20151;-71
2022/01/02 15:01:31;;;;;;;36.97;16.52;;;;;;;9.01;91.16;98886.22;8385712;28;20052;-73
2022/01/02 15:05:32;;;;;;;38.50;17.10;;;;;;;9.01;91.13;98864.69;8389924;28;20044;-73
2022/01/02 15:09:33;;;;;;;45.28;21.98;;;;;;;8.89;92.39;98863.31;8389309;28;20482;-73
2022/01/02 15:13:34;;;;;;;36.40;18.10;;;;;;;8.80;93.34;98875.09;8344567;28;20045;-72
2022/01/02 15:17:35;;;;;;;42.40;18.25;;;;;;;8.75;93.83;98873.31;8355059;28;20044;-74
2022/01/02 15:21:36;;;;;;;39.28;17.13;;;;;;;8.70;94.41;98854.59;8391067;28;20575;-73
2022/01/02 15:25:37;;;;;;;43.38;17.02;;;;;;;8.67;94.67;98833.63;8386998;28;20041;-73
2022/01/02 15:29:38;;;;;;;41.00;17.45;;;;;;;8.68;94.85;98824.47;8390875;28;20419;-72
2022/01/02 15:33:39;;;;;;;37.42;16.23;;;;;;;8.71;94.63;98818.50;8388558;28;20051;-73
2022/01/02 15:37:44;;;;;;;37.75;16.42;;;;;;;8.74;94.03;98796.34;8386290;28;20048;-73
2022/01/02 15:41:45;;;;;;;44.65;17.85;;;;;;;8.70;94.49;98806.13;8323980;28;20142;-72
2022/01/02 15:45:46;;;;;;;41.47;16.67;;;;;;;8.66;95.28;98783.63;8395666;28;20132;-72
2022/01/02 15:49:47;;;;;;;37.88;15.60;;;;;;;8.64;95.46;98777.72;8396437;28;20055;-72
2022/01/02 15:53:48;;;;;;;41.50;16.50;;;;;;;8.63;96.02;98807.63;8375291;28;20078;-73
2022/01/02 15:57:50;;;;;;;38.88;14.52;;;;;;;8.61;97.03;98829.50;8331327;28;20499;-71
2022/01/02 16:01:57;;;;;;;34.38;12.85;;;;;;;8.61;97.56;98829.50;8389554;28;20365;-73
2022/01/02 16:06:01;;;;;;;29.65;13.50;;;;;;;8.62;97.69;98808.75;8344903;28;20495;-71
2022/01/02 16:10:07;;;;;;;34.90;13.93;;;;;;;8.63;97.91;98789.59;8342859;28;20484;-71
2022/01/02 16:14:09;;;;;;;36.65;14.57;;;;;;;8.58;98.65;98743.94;8336631;28;20488;-73
2022/01/02 16:18:15;;;;;;;31.92;13.38;;;;;;;8.45;99.82;98723.28;8382437;28;20097;-72
2022/01/02 16:22:18;;;;;;;34.92;14.02;;;;;;;8.42;100.00;98696.94;8320207;28;20587;-73
2022/01/02 16:26:22;;;;;;;28.58;12.30;;;;;;;8.51;99.38;98727.44;8336881;28;20094;-72
2022/01/02 16:30:27;;;;;;;26.05;11.07;;;;;;;8.55;98.71;98733.81;8382786;28;20428;-74
2022/01/02 16:34:33;;;;;;;34.22;12.18;;;;;;;8.54;98.63;98747.56;8284550;28;20056;-74
2022/01/02 16:38:33;;;;;;;30.20;11.40;;;;;;;8.67;97.60;98790.56;8379613;28;20051;-73
2022/01/02 16:42:35;;;;;;;29.88;11.65;;;;;;;8.73;96.90;98767.03;8347656;28;20045;-71
2022/01/02 16:46:37;;;;;;;31.02;10.95;;;;;;;8.70;96.99;98752.28;8375958;28;20045;-72
2022/01/02 16:50:38;;;;;;;26.55;11.07;;;;;;;8.77;96.61;98736.50;8374289;28;20052;-71
2022/01/02 16:54:38;;;;;;;32.75;10.95;;;;;;;8.74;96.47;98710.19;8372778;28;20113;-71
2022/01/02 16:58:45;;;;;;;34.00;10.70;;;;;;;8.77;96.18;98704.22;8375839;28;20037;-71
2022/01/02 17:02:49;;;;;;;22.48;9.93;;;;;;;8.74;96.43;98688.66;8379067;28;20092;-72
2022/01/02 17:06:50;;;;;;;31.38;12.05;;;;;;;8.78;96.06;98668.09;8378816;28;20578;-71
2022/01/02 17:10:51;;;;;;;30.48;12.25;;;;;;;8.80;95.99;98670.47;8369504;28;20052;-71
2022/01/02 17:14:52;;;;;;;29.80;10.63;;;;;;;8.81;95.34;98651.31;8386539;28;20128;-72
2022/01/02 17:18:53;;;;;;;28.23;10.80;;;;;;;8.81;94.73;98656.72;8381719;28;21200;-71
2022/01/02 17:22:54;;;;;;;31.17;12.48;;;;;;;8.75;94.95;98636.41;8349592;28;20051;-72
2022/01/02 17:26:55;;;;;;;30.33;12.57;;;;;;;8.71;95.12;98640.81;8377781;28;20052;-75
2022/01/02 17:30:56;;;;;;;29.83;11.80;;;;;;;8.63;95.60;98638.84;8386597;28;20048;-73
2022/01/02 17:34:58;;;;;;;32.67;13.20;;;;;;;8.69;94.80;98637.63;8383738;28;20484;-73
2022/01/02 17:38:59;;;;;;;32.17;12.10;;;;;;;8.63;94.56;98633.47;8384316;28;20051;-73
2022/01/02 17:43:00;;;;;;;26.30;11.40;;;;;;;8.68;93.99;98630.66;8367076;28;20492;-72
2022/01/02 17:47:02;;;;;;;32.13;11.52;;;;;;;8.71;93.07;98651.59;8377076;28;20076;-73
2022/01/02 17:51:03;;;;;;;24.83;10.35;;;;;;;8.76;92.85;98651.47;8347628;28;20044;-72
2022/01/02 17:55:06;;;;;;;19.50;8.30;;;;;;;8.93;90.35;98647.28;8338328;28;20095;-72
2022/01/02 17:59:07;;;;;;;17.77;7.40;;;;;;;9.13;87.38;98652.13;8366996;28;20049;-72
2022/01/02 18:03:08;;;;;;;14.75;5.68;;;;;;;9.40;83.83;98657.31;8372909;28;20056;-73
2022/01/02 18:07:09;;;;;;;17.40;6.25;;;;;;;9.59;80.62;98668.63;8319213;28;20636;-72
2022/01/02 18:11:11;;;;;;;10.98;5.40;;;;;;;9.71;79.37;98663.44;8336144;28;20484;-72
2022/01/02 18:15:32;;;;;;;11.63;3.83;;;;;;;9.82;77.47;98668.53;8340518;28;20390;-73
2022/01/02 18:19:33;;;;;;;11.77;4.53;;;;;;;9.82;76.08;98665.84;8339229;28;20041;-72
2022/01/02 18:23:35;;;;;;;10.63;4.53;;;;;;;9.90;75.68;98665.06;8340041;28;20145;-72
2022/01/02 18:27:38;;;;;;;10.07;4.78;;;;;;;9.97;74.58;98665.41;8351093;28;20053;-72
2022/01/02 18:31:39;;;;;;;9.50;4.45;;;;;;;9.85;74.99;98673.31;8351693;28;20064;-72
2022/01/02 18:35:40;;;;;;;10.10;4.85;;;;;;;9.85;74.76;98657.13;8308891;28;20122;-73
2022/01/02 18:39:41;;;;;;;13.73;4.65;;;;;;;9.69;75.68;98659.47;8328213;28;20557;-73
2022/01/02 18:43:42;;;;;;;10.98;5.03;;;;;;;9.71;74.95;98666.16;8321878;28;20052;-72
2022/01/02 18:48:05;;;;;;;10.07;4.63;;;;;;;9.51;75.75;98658.63;8275493;28;20054;-73
2022/01/02 18:52:07;;;;;;;14.25;5.32;;;;;;;9.38;76.69;98659.53;8275852;28;20056;-71
2022/01/02 18:56:10;;;;;;;12.23;5.32;;;;;;;9.38;76.51;98654.13;8292975;28;20144;-73